createdAt,value
2023-03-15T00:00:17.454Z,100377.81
2023-03-15T00:02:49.309Z,100394.19
2023-03-15T00:05:17.510Z,100362.75
2023-03-15T00:07:47.751Z,100390.41
2023-03-15T00:10:20.487Z,100391.34
2023-03-15T00:12:48.210Z,100392.69
2023-03-15T00:15:16.361Z,100391.66
2023-03-15T00:17:47.310Z,100358.63
2023-03-15T00:20:20.747Z,100401.75
2023-03-15T00:22:48.679Z,100388.53
2023-03-15T00:25:22.353Z,100401.31
2023-03-15T00:27:50.264Z,100408.88
2023-03-15T00:30:20.732Z,100394.00
2023-03-15T00:32:48.762Z,100408.66
2023-03-15T00:35:18.342Z,100400.50
2023-03-15T00:37:47.506Z,100417.16
2023-03-15T00:40:20.260Z,100412.03
2023-03-15T00:42:50.156Z,100413.59
2023-03-15T00:45:19.567Z,100369.13
2023-03-15T00:47:50.257Z,100405.22
2023-03-15T00:50:18.142Z,100402.16
2023-03-15T00:52:46.528Z,100411.81
2023-03-15T00:55:18.032Z,100417.25
2023-03-15T00:57:47.151Z,100402.78
2023-03-15T01:00:20.857Z,100416.63
2023-03-15T01:02:49.203Z,100412.88
2023-03-15T01:05:17.277Z,100419.97
2023-03-15T01:07:46.216Z,100424.19
2023-03-15T01:10:15.640Z,100428.78
2023-03-15T01:12:45.150Z,100369.13
2023-03-15T01:15:15.110Z,100428.59
2023-03-15T01:17:43.662Z,100408.88
2023-03-15T01:20:13.622Z,100439.06
2023-03-15T01:22:44.810Z,100443.66
2023-03-15T01:25:16.077Z,100438.63
2023-03-15T01:27:48.992Z,100429.81
2023-03-15T01:30:18.971Z,100432.34
2023-03-15T01:32:46.933Z,100425.22
2023-03-15T01:35:16.082Z,100419.81
2023-03-15T01:37:43.951Z,100434.03
2023-03-15T01:40:14.446Z,100443.94
2023-03-15T01:42:54.673Z,100446.19
2023-03-15T01:46:05.245Z,100453.94
2023-03-15T01:48:39.642Z,100459.03
2023-03-15T01:51:15.813Z,100465.66
2023-03-15T01:53:46.976Z,100458.16
2023-03-15T01:56:15.338Z,100462.47
2023-03-15T01:58:45.873Z,100465.34
2023-03-15T02:01:15.681Z,100463.50
2023-03-15T02:03:51.314Z,100470.63
2023-03-15T02:06:20.610Z,100486.94
2023-03-15T02:08:57.905Z,100463.97
2023-03-15T02:11:29.144Z,100462.13
2023-03-15T02:14:00.404Z,100477.59
2023-03-15T02:16:30.747Z,100466.41
2023-03-15T02:19:04.253Z,100457.72
2023-03-15T02:21:43.554Z,100476.88
2023-03-15T02:24:24.839Z,100447.00
2023-03-15T02:26:55.506Z,100474.63
2023-03-15T02:29:26.878Z,100434.22
2023-03-15T02:31:56.329Z,100461.44
2023-03-15T02:34:26.558Z,100461.19
2023-03-15T02:36:55.344Z,100457.50
2023-03-15T02:39:24.582Z,100459.38
2023-03-15T02:41:55.063Z,100457.91
2023-03-15T02:44:28.998Z,100435.91
2023-03-15T02:47:02.076Z,100463.34
2023-03-15T02:49:36.329Z,100469.88
2023-03-15T02:52:04.675Z,100474.53
2023-03-15T02:54:34.354Z,100470.63
2023-03-15T02:57:02.767Z,100445.78
2023-03-15T02:59:32.718Z,100473.41
2023-03-15T03:02:00.716Z,100485.00
2023-03-15T03:04:28.915Z,100467.34
2023-03-15T03:06:56.821Z,100484.16
2023-03-15T03:09:30.993Z,100486.88
2023-03-15T03:11:58.869Z,100469.69
2023-03-15T03:14:26.954Z,100492.63
2023-03-15T03:16:56.134Z,100491.34
2023-03-15T03:19:26.653Z,100496.09
2023-03-15T03:21:55.276Z,100483.88
2023-03-15T03:24:25.799Z,100492.16
2023-03-15T03:26:57.919Z,100502.53
2023-03-15T03:29:28.307Z,100510.19
2023-03-15T03:32:00.461Z,100516.06
2023-03-15T03:34:28.287Z,100524.22
2023-03-15T03:36:57.086Z,100514.88
2023-03-15T03:39:43.037Z,100518.25
2023-03-15T03:42:11.053Z,100525.63
2023-03-15T03:44:38.912Z,100521.88
2023-03-15T03:47:08.758Z,100530.53
2023-03-15T03:49:36.723Z,100520.28
2023-03-15T03:52:04.716Z,100512.53
2023-03-15T03:54:33.093Z,100526.09
2023-03-15T03:57:00.844Z,100537.84
2023-03-15T03:59:33.199Z,100542.31
2023-03-15T04:02:05.882Z,100541.19
2023-03-15T04:04:36.801Z,100539.31
2023-03-15T04:07:06.340Z,100538.59
2023-03-15T04:09:37.992Z,100545.50
2023-03-15T04:12:07.300Z,100549.94
2023-03-15T04:14:36.858Z,100547.66
2023-03-15T04:17:08.681Z,100544.91
2023-03-15T04:19:38.177Z,100560.06
2023-03-15T04:22:07.792Z,100552.41
2023-03-15T04:24:53.555Z,100554.25
2023-03-15T04:27:58.957Z,100559.69
2023-03-15T04:30:46.523Z,100569.31
2023-03-15T04:33:43.788Z,100577.16
2023-03-15T04:36:37.109Z,100583.81
2023-03-15T04:39:16.737Z,100559.72
2023-03-15T04:41:51.803Z,100589.25
2023-03-15T04:44:26.697Z,100587.66
2023-03-15T04:47:13.066Z,100593.19
2023-03-15T04:49:52.888Z,100597.44
2023-03-15T04:52:58.279Z,100599.53
2023-03-15T04:55:46.382Z,100587.00
2023-03-15T04:58:46.636Z,100606.88
2023-03-15T05:01:33.101Z,100600.47
2023-03-15T05:04:16.759Z,100601.03
2023-03-15T05:06:58.220Z,100605.69
2023-03-15T05:09:40.016Z,100582.50
2023-03-15T05:12:26.604Z,100610.50
2023-03-15T05:15:34.087Z,100591.09
2023-03-15T05:18:22.998Z,100612.59
2023-03-15T05:21:08.695Z,100620.38
2023-03-15T05:23:45.495Z,100621.66
2023-03-15T05:26:31.581Z,100625.13
2023-03-15T05:29:23.185Z,100633.91
2023-03-15T05:32:27.614Z,100635.97
2023-03-15T05:35:13.884Z,100637.19
2023-03-15T05:37:47.428Z,100636.16
2023-03-15T05:40:34.032Z,100650.34
2023-03-15T05:43:29.074Z,100653.13
2023-03-15T05:46:15.248Z,100667.91
2023-03-15T05:49:09.324Z,100665.94
2023-03-15T05:51:53.947Z,100677.44
2023-03-15T05:54:37.042Z,100666.03
2023-03-15T05:57:29.347Z,100684.91
2023-03-15T06:00:18.765Z,100695.75
2023-03-15T06:02:49.874Z,100696.13
2023-03-15T06:05:34.836Z,100709.97
2023-03-15T06:08:05.326Z,100701.28
2023-03-15T06:10:34.819Z,100709.84
2023-03-15T06:13:07.639Z,100718.19
2023-03-15T06:15:42.072Z,100711.06
2023-03-15T06:18:11.447Z,100722.22
2023-03-15T06:20:39.743Z,100725.88
2023-03-15T06:23:12.857Z,100723.78
2023-03-15T06:25:46.898Z,100720.81
2023-03-15T06:28:15.293Z,100729.59
2023-03-15T06:30:53.761Z,100730.28
2023-03-15T06:33:26.762Z,100734.19
2023-03-15T06:35:55.252Z,100728.69
2023-03-15T06:38:23.064Z,100723.13
2023-03-15T06:40:50.943Z,100738.16
2023-03-15T06:43:19.744Z,100735.28
2023-03-15T06:45:48.288Z,100743.50
2023-03-15T06:48:18.545Z,100747.22
2023-03-15T06:50:47.892Z,100756.69
2023-03-15T06:53:16.818Z,100755.47
2023-03-15T06:55:44.976Z,100760.53
2023-03-15T06:58:13.375Z,100755.56
2023-03-15T07:00:42.283Z,100765.03
2023-03-15T07:03:10.277Z,100769.41
2023-03-15T07:05:39.496Z,100781.56
2023-03-15T07:08:07.633Z,100784.66
2023-03-15T07:10:35.400Z,100796.44
2023-03-15T07:13:04.366Z,100798.88
2023-03-15T07:15:32.176Z,100799.44
2023-03-15T07:18:00.431Z,100809.34
2023-03-15T07:20:28.166Z,100813.84
2023-03-15T07:22:57.835Z,100817.81
2023-03-15T07:25:25.966Z,100819.06
2023-03-15T07:27:54.646Z,100826.34
2023-03-15T07:30:23.442Z,100827.09
2023-03-15T07:32:51.281Z,100830.06
2023-03-15T07:35:19.102Z,100840.94
2023-03-15T07:37:47.066Z,100835.13
2023-03-15T07:40:16.434Z,100849.06
2023-03-15T07:42:45.649Z,100852.72
2023-03-15T07:45:14.354Z,100851.59
2023-03-15T07:47:42.193Z,100847.13
2023-03-15T07:50:12.845Z,100861.16
2023-03-15T07:52:41.187Z,100869.84
2023-03-15T07:55:09.911Z,100873.22
2023-03-15T08:40:28.009Z,100935.44
2023-03-15T08:42:56.894Z,100942.19
2023-03-15T08:45:26.300Z,100947.59
2023-03-15T08:47:56.923Z,100928.34
2023-03-15T08:50:25.632Z,100953.16
2023-03-15T08:52:53.824Z,100960.97
2023-03-15T08:55:21.856Z,100956.69
2023-03-15T08:57:50.945Z,100962.84
2023-03-15T09:00:22.693Z,100963.59
2023-03-15T09:02:51.889Z,100973.22
2023-03-15T09:05:21.091Z,100977.00
2023-03-15T09:07:49.274Z,100974.66
2023-03-15T09:10:18.376Z,100978.44
2023-03-15T09:12:48.333Z,100971.88
2023-03-15T09:15:18.687Z,100974.22
2023-03-15T09:17:46.535Z,100984.41
2023-03-15T09:20:16.835Z,100970.56
2023-03-15T09:22:45.806Z,100987.97
2023-03-15T09:25:13.633Z,100984.03
2023-03-15T09:27:41.457Z,100969.81
2023-03-15T09:30:11.005Z,100996.22
2023-03-15T09:32:40.209Z,100986.31
2023-03-15T09:35:11.440Z,100994.03
2023-03-15T09:37:39.150Z,100993.97
2023-03-15T09:40:08.367Z,101000.97
2023-03-15T09:42:51.925Z,101001.06
2023-03-15T09:45:27.880Z,100999.78
2023-03-15T09:48:05.284Z,100997.91
2023-03-15T09:50:36.969Z,101005.69
2023-03-15T09:53:09.537Z,101002.69
2023-03-15T09:55:37.371Z,101007.66
2023-03-15T09:58:06.489Z,101007.75
2023-03-15T10:00:38.636Z,101005.13
2023-03-15T10:03:14.187Z,100998.09
2023-03-15T10:05:44.342Z,101001.28
2023-03-15T10:08:13.875Z,101002.13
2023-03-15T10:10:48.104Z,101005.94
2023-03-15T10:13:30.815Z,101003.94
2023-03-15T10:16:12.274Z,100979.66
2023-03-15T10:18:54.001Z,101002.28
2023-03-15T10:21:34.892Z,101010.91
2023-03-15T10:24:05.630Z,101002.06
2023-03-15T10:26:39.998Z,101010.31
2023-03-15T10:29:14.920Z,101015.13
2023-03-15T10:31:47.220Z,101009.00
2023-03-15T10:34:17.197Z,101018.06
2023-03-15T10:36:47.183Z,101023.75
2023-03-15T10:39:15.360Z,100996.59
2023-03-15T10:41:44.910Z,101030.91
2023-03-15T10:44:16.305Z,101032.75
2023-03-15T10:47:02.996Z,101024.00
2023-03-15T10:49:37.498Z,101033.88
2023-03-15T10:52:05.856Z,101035.91
2023-03-15T10:54:35.947Z,101029.16
2023-03-15T10:57:06.232Z,101030.72
2023-03-15T10:59:35.877Z,101032.78
2023-03-15T11:02:22.458Z,101030.06
2023-03-15T11:05:01.031Z,101037.44
2023-03-15T11:07:28.793Z,101030.28
2023-03-15T11:10:01.457Z,101040.13
2023-03-15T11:12:30.972Z,101043.00
2023-03-15T11:15:02.782Z,101037.25
2023-03-15T11:17:33.571Z,101048.25
2023-03-15T11:20:15.855Z,101040.66
2023-03-15T11:22:43.773Z,101043.75
2023-03-15T11:25:14.409Z,101044.81
2023-03-15T11:27:43.348Z,101049.47
2023-03-15T11:30:15.670Z,101054.47
2023-03-15T11:32:44.968Z,101058.78
2023-03-15T11:35:19.799Z,101066.59
2023-03-15T11:37:51.713Z,101077.09
2023-03-15T11:40:23.119Z,101069.13
2023-03-15T11:42:55.921Z,101080.47
2023-03-15T11:45:33.253Z,101071.94
2023-03-15T11:48:27.544Z,101086.34
2023-03-15T11:50:58.438Z,101086.97
2023-03-15T11:53:31.304Z,101092.59
2023-03-15T11:56:20.323Z,101091.91
2023-03-15T11:59:04.065Z,101097.97
2023-03-15T12:01:31.936Z,101099.22
2023-03-15T12:04:39.366Z,101102.41
2023-03-15T12:07:29.114Z,101098.38
2023-03-15T12:09:57.647Z,101082.78
2023-03-15T12:12:45.604Z,101100.22
2023-03-15T12:15:46.976Z,101102.53
2023-03-15T12:18:32.016Z,101098.22
2023-03-15T12:21:09.678Z,101088.13
2023-03-15T12:23:43.578Z,101093.38
2023-03-15T12:26:24.336Z,101101.41
2023-03-15T12:28:54.581Z,101091.69
2023-03-15T12:31:22.511Z,101102.09
2023-03-15T12:33:53.396Z,101073.56
2023-03-15T12:36:31.841Z,101093.09
2023-03-15T12:39:04.352Z,101108.75
2023-03-15T12:41:39.107Z,101094.44
2023-03-15T12:44:21.829Z,101100.81
2023-03-15T12:46:58.613Z,101083.22
2023-03-15T12:49:32.768Z,101098.25
2023-03-15T12:52:02.711Z,101102.13
2023-03-15T12:54:41.383Z,101100.53
2023-03-15T12:57:12.148Z,101099.84
2023-03-15T12:59:45.810Z,101097.44
2023-03-15T13:02:42.626Z,101099.03
2023-03-15T13:05:20.981Z,101087.28
2023-03-15T13:07:57.737Z,101070.63
2023-03-15T13:10:36.127Z,101080.00
2023-03-15T13:13:14.355Z,101089.78
2023-03-15T13:15:46.025Z,101084.81
2023-03-15T13:18:19.394Z,101095.06
2023-03-15T13:20:54.771Z,101092.66
2023-03-15T13:23:26.857Z,101088.13
2023-03-15T13:26:25.239Z,101092.41
2023-03-15T13:29:00.742Z,101088.06
2023-03-15T13:31:31.656Z,101096.78
2023-03-15T13:34:13.445Z,101093.25
2023-03-15T13:36:45.552Z,101089.47
2023-03-15T13:39:20.564Z,101046.59
2023-03-15T13:41:50.299Z,101090.03
2023-03-15T13:44:21.367Z,101085.16
2023-03-15T13:46:50.902Z,101096.78
2023-03-15T13:49:20.647Z,101092.34
2023-03-15T13:51:50.967Z,101097.94
2023-03-15T13:54:21.723Z,101091.09
2023-03-15T13:57:03.569Z,101093.75
2023-03-15T13:59:36.139Z,101090.34
2023-03-15T14:02:14.654Z,101079.75
2023-03-15T14:04:42.685Z,101092.06
2023-03-15T14:07:25.821Z,101094.69
2023-03-15T14:10:10.039Z,101071.59
2023-03-15T14:12:39.272Z,101102.34
2023-03-15T14:15:16.419Z,101111.53
2023-03-15T14:17:54.406Z,101088.53
2023-03-15T14:20:29.830Z,101090.16
2023-03-15T14:23:03.116Z,101104.00
2023-03-15T14:25:36.027Z,101099.16
2023-03-15T14:28:06.703Z,101092.53
2023-03-15T14:30:37.109Z,101093.13
2023-03-15T14:33:07.544Z,101101.50
2023-03-15T14:35:43.412Z,101099.59
2023-03-15T14:38:18.966Z,101100.69
2023-03-15T14:40:47.208Z,101101.63
2023-03-15T14:43:16.604Z,101087.00
2023-03-15T14:45:48.154Z,101096.53
2023-03-15T14:48:22.905Z,101109.50
2023-03-15T14:50:50.815Z,101118.91
2023-03-15T14:53:21.210Z,101114.81
2023-03-15T14:55:48.993Z,101121.09
2023-03-15T14:58:20.086Z,101111.72
2023-03-15T15:00:50.475Z,101114.38
2023-03-15T15:03:22.112Z,101113.53
2023-03-15T15:05:50.225Z,101114.38
2023-03-15T15:08:19.809Z,101120.63
2023-03-15T15:10:49.028Z,101107.88
2023-03-15T15:13:20.810Z,101120.94
2023-03-15T15:15:55.612Z,101122.75
2023-03-15T15:18:25.908Z,101126.22
2023-03-15T15:20:55.847Z,101092.09
2023-03-15T15:23:27.055Z,101112.63
2023-03-15T15:25:58.347Z,101111.28
2023-03-15T15:28:35.285Z,101107.78
2023-03-15T15:31:05.130Z,101099.88
2023-03-15T15:33:33.972Z,101106.81
2023-03-15T15:36:02.356Z,101073.16
2023-03-15T15:38:38.087Z,101103.31
2023-03-15T15:41:06.436Z,101100.34
2023-03-15T15:43:35.561Z,101096.25
2023-03-15T15:46:03.372Z,101085.91
2023-03-15T15:48:31.155Z,101093.19
2023-03-15T15:50:58.976Z,101090.69
2023-03-15T15:53:28.263Z,101084.69
2023-03-15T15:55:56.160Z,101089.84
2023-03-15T15:58:23.972Z,101089.25
2023-03-15T16:00:53.103Z,101093.91
2023-03-15T16:03:20.898Z,101091.38
2023-03-15T16:05:48.654Z,101088.22
2023-03-15T16:08:22.943Z,101077.41
2023-03-15T16:10:51.007Z,101083.31
2023-03-15T16:13:19.024Z,101084.63
2023-03-15T16:15:46.804Z,101082.50
2023-03-15T16:18:15.922Z,101086.31
2023-03-15T16:20:44.378Z,101083.44
2023-03-15T16:23:17.996Z,101083.16
2023-03-15T16:25:51.637Z,101090.28
2023-03-15T16:28:19.902Z,101089.66
2023-03-15T16:30:47.861Z,101088.56
2023-03-15T16:33:18.754Z,101080.13
2023-03-15T16:35:50.030Z,101084.06
2023-03-15T16:38:24.178Z,101085.31
2023-03-15T16:40:53.292Z,101091.75
2023-03-15T16:43:21.145Z,101090.41
2023-03-15T16:45:49.070Z,101096.19
2023-03-15T16:48:18.245Z,101088.94
2023-03-15T16:50:46.040Z,101090.41
2023-03-15T16:53:14.640Z,101100.84
2023-03-15T16:55:42.447Z,101070.22
2023-03-15T16:58:19.035Z,101091.41
2023-03-15T17:00:48.666Z,101107.03
2023-03-15T17:03:18.203Z,101098.50
2023-03-15T17:05:48.053Z,101111.47
2023-03-15T17:08:19.649Z,101109.25
2023-03-15T17:10:47.814Z,101104.63
2023-03-15T17:13:18.184Z,101101.16
2023-03-15T17:15:46.007Z,101110.75
2023-03-15T17:18:18.944Z,101098.41
2023-03-15T17:20:48.481Z,101110.59
2023-03-15T17:23:17.040Z,101105.03
2023-03-15T17:25:44.877Z,101099.44
2023-03-15T17:28:12.633Z,101100.59
2023-03-15T17:30:40.986Z,101064.78
2023-03-15T17:33:09.129Z,101102.06
2023-03-15T17:35:40.800Z,101111.13
2023-03-15T17:38:16.109Z,101120.53
2023-03-15T17:40:44.073Z,101126.84
2023-03-15T17:43:13.688Z,101118.34
2023-03-15T17:45:41.819Z,101121.25
2023-03-15T17:48:10.160Z,101125.22
2023-03-15T17:50:39.955Z,101120.47
2023-03-15T17:53:14.061Z,101120.56
2023-03-15T17:55:41.887Z,101124.13
2023-03-15T17:58:20.222Z,101119.84
2023-03-15T18:00:49.085Z,101123.88
2023-03-15T18:03:18.069Z,101105.34
2023-03-15T18:05:47.354Z,101131.69
2023-03-15T18:08:18.252Z,101130.53
2023-03-15T18:10:47.066Z,101117.22
2023-03-15T18:13:17.556Z,101131.91
2023-03-15T18:15:45.476Z,101132.09
2023-03-15T18:18:13.374Z,101135.91
2023-03-15T18:20:42.095Z,101131.03
2023-03-15T18:23:14.110Z,101142.38
2023-03-15T18:25:42.302Z,101138.25
2023-03-15T18:28:10.391Z,101137.84
2023-03-15T18:30:38.150Z,101131.63
2023-03-15T18:33:06.132Z,101147.59
2023-03-15T18:35:35.573Z,101151.81
2023-03-15T18:38:04.055Z,101154.00
2023-03-15T18:40:35.217Z,101155.59
2023-03-15T18:43:05.277Z,101154.09
2023-03-15T18:45:34.952Z,101152.50
2023-03-15T18:48:03.426Z,101162.47
2023-03-15T18:50:31.820Z,101156.56
2023-03-15T18:52:59.633Z,101164.53
2023-03-15T18:55:27.829Z,101167.91
2023-03-15T18:57:56.982Z,101162.66
2023-03-15T19:00:27.344Z,101171.00
2023-03-15T19:02:57.101Z,101170.38
2023-03-15T19:05:26.033Z,101164.16
2023-03-15T19:07:53.850Z,101169.50
2023-03-15T19:10:24.051Z,101164.91
2023-03-15T19:12:53.213Z,101175.81
2023-03-15T19:15:23.899Z,101163.78
2023-03-15T19:17:54.375Z,101172.78
2023-03-15T19:20:23.020Z,101169.41
2023-03-15T19:22:51.242Z,101162.88
2023-03-15T19:25:19.664Z,101169.81
2023-03-15T19:27:47.702Z,101171.50
2023-03-15T19:30:20.894Z,101159.69
2023-03-15T19:32:51.598Z,101167.53
2023-03-15T19:35:20.978Z,101159.38
2023-03-15T19:37:49.743Z,101157.41
2023-03-15T19:40:18.439Z,101153.28
2023-03-15T19:42:47.119Z,101164.16
2023-03-15T19:45:14.879Z,101150.66
2023-03-15T19:47:43.160Z,101174.47
2023-03-15T19:50:15.483Z,101172.41
2023-03-15T19:52:46.696Z,101171.56
2023-03-15T19:55:15.564Z,101152.28
2023-03-15T19:57:43.777Z,101164.72
2023-03-15T20:00:14.211Z,101166.50
2023-03-15T20:02:42.900Z,101167.53
2023-03-15T20:05:14.919Z,101166.06
2023-03-15T20:07:43.573Z,101173.44
2023-03-15T20:10:12.954Z,101168.28
2023-03-15T20:12:42.347Z,101172.59
2023-03-15T20:15:11.855Z,101178.25
2023-03-15T20:17:40.835Z,101175.50
2023-03-15T20:20:13.118Z,101179.19
2023-03-15T20:22:44.065Z,101185.19
2023-03-15T20:25:13.588Z,101184.56
2023-03-15T20:27:41.849Z,101182.00
2023-03-15T20:30:12.640Z,101171.59
2023-03-15T20:32:40.658Z,101196.28
2023-03-15T20:35:09.792Z,101192.88
2023-03-15T20:37:40.305Z,101184.47
2023-03-15T20:40:12.640Z,101188.22
2023-03-15T20:42:40.429Z,101188.56
2023-03-15T20:45:09.918Z,101186.69
2023-03-15T20:47:38.764Z,101188.38
2023-03-15T20:50:07.155Z,101186.13
2023-03-15T20:52:35.305Z,101148.25
2023-03-15T20:55:03.592Z,101171.13
2023-03-15T20:57:32.702Z,101181.53
2023-03-15T21:00:00.577Z,101179.75
2023-03-15T21:02:28.372Z,101177.13
2023-03-15T21:04:56.218Z,101181.63
2023-03-15T21:07:24.027Z,101183.13
2023-03-15T21:09:51.787Z,101179.56
2023-03-15T21:12:20.015Z,101167.91
2023-03-15T21:14:49.122Z,101162.31
2023-03-15T21:17:16.860Z,101181.78
2023-03-15T21:19:44.623Z,101183.88
2023-03-15T21:22:12.816Z,101178.78
2023-03-15T21:24:54.477Z,101181.69
2023-03-15T21:27:26.084Z,101144.25
2023-03-15T21:29:55.589Z,101168.81
2023-03-15T21:32:23.419Z,101167.16
2023-03-15T21:34:51.176Z,101172.13
2023-03-15T21:37:19.240Z,101160.88
2023-03-15T21:39:46.920Z,101163.41
2023-03-15T21:42:14.740Z,101163.69
2023-03-15T21:44:42.715Z,101157.59
2023-03-15T21:47:13.992Z,101153.28
2023-03-15T21:49:44.585Z,101156.00
2023-03-15T21:52:12.449Z,101144.16
2023-03-15T21:54:40.194Z,101148.97
2023-03-15T21:57:07.948Z,101150.09
2023-03-15T21:59:35.965Z,101153.47
2023-03-15T22:02:03.684Z,101152.72
2023-03-15T22:04:33.963Z,101139.00
2023-03-15T22:07:01.829Z,101157.88
2023-03-15T22:09:29.521Z,101148.38
2023-03-15T22:11:57.267Z,101151.28
2023-03-15T22:14:25.026Z,101141.63
2023-03-15T22:16:53.095Z,101148.75
2023-03-15T22:19:20.970Z,101144.25
2023-03-15T22:21:49.994Z,101133.22
2023-03-15T22:24:17.701Z,101140.22
2023-03-15T22:26:45.475Z,101134.22
2023-03-15T22:29:13.217Z,101136.19
2023-03-15T22:31:41.019Z,101130.94
2023-03-15T22:34:08.792Z,101132.88
2023-03-15T22:36:36.520Z,101132.25
2023-03-15T22:39:05.872Z,101132.25
2023-03-15T22:41:33.805Z,101131.19
2023-03-15T22:44:01.564Z,101144.59
2023-03-15T22:46:34.891Z,101137.50
2023-03-15T22:49:02.970Z,101145.53
2023-03-15T22:51:31.010Z,101150.19
2023-03-15T22:53:58.692Z,101143.25
2023-03-15T22:56:27.800Z,101106.84
2023-03-15T22:58:56.023Z,101131.06
2023-03-15T23:01:23.840Z,101139.69
2023-03-15T23:03:51.591Z,101141.47
2023-03-15T23:06:19.890Z,101140.03
2023-03-15T23:08:47.630Z,101111.06
2023-03-15T23:11:15.439Z,101129.75
2023-03-15T23:13:48.257Z,101135.00
2023-03-15T23:16:16.302Z,101136.09
2023-03-15T23:18:44.888Z,101128.41
2023-03-15T23:21:15.637Z,101105.59
2023-03-15T23:23:43.803Z,101128.56
2023-03-15T23:26:15.246Z,101132.97
2023-03-15T23:28:44.360Z,101140.84
2023-03-15T23:31:12.140Z,101130.34
2023-03-15T23:33:39.882Z,101133.72
2023-03-15T23:36:08.793Z,101151.59
2023-03-15T23:38:36.520Z,101149.16
2023-03-15T23:41:05.001Z,101161.91
2023-03-15T23:43:33.804Z,101150.75
2023-03-15T23:46:04.792Z,101155.91
2023-03-15T23:48:35.249Z,101127.75
2023-03-15T23:51:04.009Z,101147.00
2023-03-15T23:53:32.297Z,101149.06
2023-03-15T23:56:00.185Z,101146.63
2023-03-15T23:58:28.809Z,101139.47
